sensor_id;sensor_type;location;lat;lon;timestamp;P1;durP1;ratioP1;P2;durP2;ratioP2
74471;SDS011;73591;53.714;10.514;2023-11-19T00:01:45;10.73;;;4.78;;
74471;SDS011;73591;53.714;10.514;2023-11-19T00:04:12;11.50;;;5.55;;
74471;SDS011;73591;53.714;10.514;2023-11-19T00:06:37;9.63;;;5.07;;
74471;SDS011;73591;53.714;10.514;2023-11-19T00:09:02;12.00;;;4.72;;
74471;SDS011;73591;53.714;10.514;2023-11-19T00:11:28;8.95;;;5.45;;
74471;SDS011;73591;53.714;10.514;2023-11-19T00:13:54;9.48;;;4.45;;
74471;SDS011;73591;53.714;10.514;2023-11-19T00:16:19;9.73;;;4.80;;
74471;SDS011;73591;53.714;10.514;2023-11-19T00:18:44;10.18;;;4.68;;
74471;SDS011;73591;53.714;10.514;2023-11-19T00:21:10;12.52;;;4.28;;
74471;SDS011;73591;53.714;10.514;2023-11-19T00:23:35;8.85;;;3.90;;
74471;SDS011;73591;53.714;10.514;2023-11-19T00:26:01;9.35;;;4.35;;
74471;SDS011;73591;53.714;10.514;2023-11-19T00:28:26;8.18;;;4.22;;
74471;SDS011;73591;53.714;10.514;2023-11-19T00:30:52;8.77;;;4.10;;
74471;SDS011;73591;53.714;10.514;2023-11-19T00:33:18;9.48;;;4.38;;
74471;SDS011;73591;53.714;10.514;2023-11-19T00:35:43;9.50;;;4.45;;
74471;SDS011;73591;53.714;10.514;2023-11-19T00:38:08;11.35;;;4.28;;
74471;SDS011;73591;53.714;10.514;2023-11-19T00:40:34;10.35;;;3.97;;
74471;SDS011;73591;53.714;10.514;2023-11-19T00:42:59;7.50;;;3.60;;
74471;SDS011;73591;53.714;10.514;2023-11-19T00:45:24;10.05;;;4.32;;
74471;SDS011;73591;53.714;10.514;2023-11-19T00:47:50;9.35;;;4.53;;
74471;SDS011;73591;53.714;10.514;2023-11-19T00:50:15;7.97;;;3.90;;
74471;SDS011;73591;53.714;10.514;2023-11-19T00:52:41;8.13;;;3.85;;
74471;SDS011;73591;53.714;10.514;2023-11-19T00:55:06;7.93;;;3.90;;
74471;SDS011;73591;53.714;10.514;2023-11-19T00:57:32;6.80;;;3.80;;
74471;SDS011;73591;53.714;10.514;2023-11-19T00:59:57;6.25;;;3.55;;
74471;SDS011;73591;53.714;10.514;2023-11-19T01:02:23;9.27;;;4.25;;
74471;SDS011;73591;53.714;10.514;2023-11-19T01:04:49;6.13;;;2.65;;
74471;SDS011;73591;53.714;10.514;2023-11-19T01:07:15;5.43;;;2.80;;
74471;SDS011;73591;53.714;10.514;2023-11-19T01:09:43;6.25;;;2.83;;
74471;SDS011;73591;53.714;10.514;2023-11-19T01:12:09;6.78;;;2.85;;
74471;SDS011;73591;53.714;10.514;2023-11-19T01:14:35;6.22;;;2.65;;
74471;SDS011;73591;53.714;10.514;2023-11-19T01:17:01;6.03;;;2.95;;
74471;SDS011;73591;53.714;10.514;2023-11-19T01:19:26;6.30;;;2.78;;
74471;SDS011;73591;53.714;10.514;2023-11-19T01:24:18;6.70;;;3.00;;
74471;SDS011;73591;53.714;10.514;2023-11-19T01:26:43;6.25;;;2.95;;
74471;SDS011;73591;53.714;10.514;2023-11-19T01:29:12;6.28;;;2.97;;
74471;SDS011;73591;53.714;10.514;2023-11-19T01:31:41;7.80;;;3.25;;
74471;SDS011;73591;53.714;10.514;2023-11-19T01:34:06;6.10;;;2.38;;
74471;SDS011;73591;53.714;10.514;2023-11-19T01:36:32;7.22;;;3.13;;
74471;SDS011;73591;53.714;10.514;2023-11-19T01:38:57;4.80;;;2.28;;
74471;SDS011;73591;53.714;10.514;2023-11-19T01:41:22;5.28;;;2.22;;
74471;SDS011;73591;53.714;10.514;2023-11-19T01:43:48;5.43;;;2.97;;
74471;SDS011;73591;53.714;10.514;2023-11-19T01:46:13;4.65;;;2.38;;
74471;SDS011;73591;53.714;10.514;2023-11-19T01:48:40;4.60;;;1.77;;
74471;SDS011;73591;53.714;10.514;2023-11-19T01:51:07;4.30;;;2.13;;
74471;SDS011;73591;53.714;10.514;2023-11-19T01:53:34;4.38;;;2.03;;
74471;SDS011;73591;53.714;10.514;2023-11-19T01:56:00;4.50;;;1.77;;
74471;SDS011;73591;53.714;10.514;2023-11-19T01:58:26;4.43;;;1.73;;
74471;SDS011;73591;53.714;10.514;2023-11-19T02:00:51;4.07;;;1.95;;
74471;SDS011;73591;53.714;10.514;2023-11-19T02:03:17;4.28;;;1.85;;
74471;SDS011;73591;53.714;10.514;2023-11-19T02:05:42;3.67;;;1.55;;
74471;SDS011;73591;53.714;10.514;2023-11-19T02:08:08;3.85;;;1.60;;
74471;SDS011;73591;53.714;10.514;2023-11-19T02:10:33;9.18;;;1.90;;
74471;SDS011;73591;53.714;10.514;2023-11-19T02:12:59;3.85;;;1.65;;
74471;SDS011;73591;53.714;10.514;2023-11-19T02:15:24;3.83;;;1.42;;
74471;SDS011;73591;53.714;10.514;2023-11-19T02:17:50;3.08;;;1.50;;
74471;SDS011;73591;53.714;10.514;2023-11-19T02:20:16;3.40;;;1.38;;
74471;SDS011;73591;53.714;10.514;2023-11-19T02:22:43;3.47;;;1.50;;
74471;SDS011;73591;53.714;10.514;2023-11-19T02:25:42;3.60;;;1.70;;
74471;SDS011;73591;53.714;10.514;2023-11-19T02:28:01;3.05;;;1.40;;
74471;SDS011;73591;53.714;10.514;2023-11-19T02:30:27;3.10;;;1.25;;
74471;SDS011;73591;53.714;10.514;2023-11-19T02:32:53;3.15;;;1.30;;
74471;SDS011;73591;53.714;10.514;2023-11-19T02:35:22;2.75;;;1.17;;
74471;SDS011;73591;53.714;10.514;2023-11-19T02:37:47;3.25;;;1.48;;
74471;SDS011;73591;53.714;10.514;2023-11-19T02:40:13;6.03;;;1.27;;
74471;SDS011;73591;53.714;10.514;2023-11-19T02:42:38;3.92;;;1.65;;
74471;SDS011;73591;53.714;10.514;2023-11-19T02:45:04;3.08;;;1.63;;
74471;SDS011;73591;53.714;10.514;2023-11-19T02:47:31;3.90;;;1.17;;
74471;SDS011;73591;53.714;10.514;2023-11-19T02:49:56;2.78;;;1.27;;
74471;SDS011;73591;53.714;10.514;2023-11-19T02:52:22;2.40;;;1.00;;
74471;SDS011;73591;53.714;10.514;2023-11-19T02:54:48;3.50;;;1.50;;
74471;SDS011;73591;53.714;10.514;2023-11-19T02:57:13;3.15;;;1.48;;
74471;SDS011;73591;53.714;10.514;2023-11-19T02:59:39;3.00;;;1.00;;
74471;SDS011;73591;53.714;10.514;2023-11-19T03:02:06;3.08;;;1.20;;
74471;SDS011;73591;53.714;10.514;2023-11-19T03:04:35;2.60;;;1.00;;
74471;SDS011;73591;53.714;10.514;2023-11-19T03:07:00;2.70;;;1.05;;
74471;SDS011;73591;53.714;10.514;2023-11-19T03:09:26;1.75;;;0.57;;
74471;SDS011;73591;53.714;10.514;2023-11-19T03:11:53;2.15;;;0.88;;
74471;SDS011;73591;53.714;10.514;2023-11-19T03:14:18;2.22;;;0.90;;
74471;SDS011;73591;53.714;10.514;2023-11-19T03:16:47;1.85;;;0.77;;
74471;SDS011;73591;53.714;10.514;2023-11-19T03:19:12;2.30;;;0.80;;
74471;SDS011;73591;53.714;10.514;2023-11-19T03:21:37;2.47;;;0.90;;
74471;SDS011;73591;53.714;10.514;2023-11-19T03:24:03;1.65;;;0.60;;
74471;SDS011;73591;53.714;10.514;2023-11-19T03:26:28;2.40;;;0.80;;
74471;SDS011;73591;53.714;10.514;2023-11-19T03:28:54;2.35;;;0.70;;
74471;SDS011;73591;53.714;10.514;2023-11-19T03:31:19;2.65;;;0.80;;
74471;SDS011;73591;53.714;10.514;2023-11-19T03:33:45;1.80;;;0.65;;
74471;SDS011;73591;53.714;10.514;2023-11-19T03:36:10;1.92;;;0.70;;
74471;SDS011;73591;53.714;10.514;2023-11-19T03:38:36;1.85;;;0.70;;
74471;SDS011;73591;53.714;10.514;2023-11-19T03:41:05;1.90;;;0.63;;
74471;SDS011;73591;53.714;10.514;2023-11-19T03:43:35;2.50;;;1.00;;
74471;SDS011;73591;53.714;10.514;2023-11-19T03:46:00;1.80;;;0.70;;
74471;SDS011;73591;53.714;10.514;2023-11-19T03:48:25;2.90;;;0.85;;
74471;SDS011;73591;53.714;10.514;2023-11-19T03:50:51;2.15;;;0.80;;
74471;SDS011;73591;53.714;10.514;2023-11-19T03:53:16;1.90;;;0.65;;
74471;SDS011;73591;53.714;10.514;2023-11-19T03:55:41;2.38;;;0.88;;
74471;SDS011;73591;53.714;10.514;2023-11-19T03:58:07;4.70;;;0.82;;
74471;SDS011;73591;53.714;10.514;2023-11-19T04:00:32;2.05;;;0.90;;
74471;SDS011;73591;53.714;10.514;2023-11-19T04:02:58;2.00;;;0.70;;
74471;SDS011;73591;53.714;10.514;2023-11-19T04:05:23;2.10;;;0.70;;
74471;SDS011;73591;53.714;10.514;2023-11-19T04:07:48;2.30;;;0.73;;
74471;SDS011;73591;53.714;10.514;2023-11-19T04:10:14;1.80;;;0.70;;
74471;SDS011;73591;53.714;10.514;2023-11-19T04:12:41;2.60;;;1.00;;
74471;SDS011;73591;53.714;10.514;2023-11-19T04:15:07;2.75;;;1.20;;
74471;SDS011;73591;53.714;10.514;2023-11-19T04:17:33;3.15;;;1.15;;
74471;SDS011;73591;53.714;10.514;2023-11-19T04:19:59;2.22;;;0.93;;
74471;SDS011;73591;53.714;10.514;2023-11-19T04:22:24;2.88;;;1.20;;
74471;SDS011;73591;53.714;10.514;2023-11-19T04:24:49;2.33;;;0.98;;
74471;SDS011;73591;53.714;10.514;2023-11-19T04:27:14;3.03;;;1.20;;
74471;SDS011;73591;53.714;10.514;2023-11-19T04:29:40;4.85;;;1.38;;
74471;SDS011;73591;53.714;10.514;2023-11-19T04:32:05;3.20;;;1.40;;
74471;SDS011;73591;53.714;10.514;2023-11-19T04:34:31;2.95;;;1.38;;
74471;SDS011;73591;53.714;10.514;2023-11-19T04:36:56;2.72;;;1.23;;
74471;SDS011;73591;53.714;10.514;2023-11-19T04:39:21;3.53;;;1.48;;
74471;SDS011;73591;53.714;10.514;2023-11-19T04:41:48;2.47;;;1.10;;
74471;SDS011;73591;53.714;10.514;2023-11-19T04:44:14;2.83;;;1.13;;
74471;SDS011;73591;53.714;10.514;2023-11-19T04:46:40;4.93;;;1.50;;
74471;SDS011;73591;53.714;10.514;2023-11-19T04:49:08;2.83;;;1.40;;
74471;SDS011;73591;53.714;10.514;2023-11-19T04:51:37;3.20;;;1.52;;
74471;SDS011;73591;53.714;10.514;2023-11-19T04:54:03;4.30;;;1.48;;
74471;SDS011;73591;53.714;10.514;2023-11-19T04:56:29;3.80;;;1.75;;
74471;SDS011;73591;53.714;10.514;2023-11-19T04:58:54;3.40;;;1.65;;
74471;SDS011;73591;53.714;10.514;2023-11-19T05:01:20;2.88;;;1.42;;
74471;SDS011;73591;53.714;10.514;2023-11-19T05:03:45;3.25;;;1.48;;
74471;SDS011;73591;53.714;10.514;2023-11-19T05:06:10;3.78;;;2.10;;
74471;SDS011;73591;53.714;10.514;2023-11-19T05:08:36;3.53;;;1.40;;
74471;SDS011;73591;53.714;10.514;2023-11-19T05:11:01;3.30;;;1.40;;
74471;SDS011;73591;53.714;10.514;2023-11-19T05:13:26;4.05;;;1.50;;
74471;SDS011;73591;53.714;10.514;2023-11-19T05:15:52;4.35;;;1.73;;
74471;SDS011;73591;53.714;10.514;2023-11-19T05:18:17;4.93;;;1.90;;
74471;SDS011;73591;53.714;10.514;2023-11-19T05:20:43;4.63;;;2.30;;
74471;SDS011;73591;53.714;10.514;2023-11-19T05:23:09;5.43;;;1.88;;
74471;SDS011;73591;53.714;10.514;2023-11-19T05:25:34;5.78;;;2.38;;
74471;SDS011;73591;53.714;10.514;2023-11-19T05:27:59;6.32;;;2.78;;
74471;SDS011;73591;53.714;10.514;2023-11-19T05:30:25;7.30;;;3.35;;
74471;SDS011;73591;53.714;10.514;2023-11-19T05:32:50;7.30;;;3.40;;
74471;SDS011;73591;53.714;10.514;2023-11-19T05:35:15;7.55;;;2.90;;
74471;SDS011;73591;53.714;10.514;2023-11-19T05:37:41;10.50;;;3.83;;
74471;SDS011;73591;53.714;10.514;2023-11-19T05:40:06;8.90;;;3.75;;
74471;SDS011;73591;53.714;10.514;2023-11-19T05:42:39;11.88;;;4.38;;
74471;SDS011;73591;53.714;10.514;2023-11-19T05:45:04;8.95;;;4.60;;
74471;SDS011;73591;53.714;10.514;2023-11-19T05:47:30;10.18;;;4.00;;
74471;SDS011;73591;53.714;10.514;2023-11-19T05:49:55;11.27;;;4.53;;
74471;SDS011;73591;53.714;10.514;2023-11-19T05:52:20;13.02;;;5.63;;
74471;SDS011;73591;53.714;10.514;2023-11-19T05:57:16;8.85;;;4.15;;
74471;SDS011;73591;53.714;10.514;2023-11-19T05:59:45;14.10;;;5.35;;
74471;SDS011;73591;53.714;10.514;2023-11-19T06:02:10;11.57;;;5.18;;
74471;SDS011;73591;53.714;10.514;2023-11-19T06:04:36;16.52;;;6.20;;
74471;SDS011;73591;53.714;10.514;2023-11-19T06:07:01;15.07;;;5.95;;
74471;SDS011;73591;53.714;10.514;2023-11-19T06:09:26;13.98;;;5.28;;
74471;SDS011;73591;53.714;10.514;2023-11-19T06:11:52;16.00;;;5.30;;
74471;SDS011;73591;53.714;10.514;2023-11-19T06:14:18;12.98;;;5.18;;
74471;SDS011;73591;53.714;10.514;2023-11-19T06:16:43;12.25;;;5.93;;
74471;SDS011;73591;53.714;10.514;2023-11-19T06:19:09;12.65;;;5.68;;
74471;SDS011;73591;53.714;10.514;2023-11-19T06:21:36;14.98;;;6.50;;
74471;SDS011;73591;53.714;10.514;2023-11-19T06:24:02;17.30;;;6.93;;
74471;SDS011;73591;53.714;10.514;2023-11-19T06:26:27;17.02;;;7.53;;
74471;SDS011;73591;53.714;10.514;2023-11-19T06:28:52;16.35;;;7.50;;
74471;SDS011;73591;53.714;10.514;2023-11-19T06:31:18;15.57;;;6.63;;
74471;SDS011;73591;53.714;10.514;2023-11-19T06:33:43;18.73;;;6.97;;
74471;SDS011;73591;53.714;10.514;2023-11-19T06:36:08;16.67;;;7.07;;
74471;SDS011;73591;53.714;10.514;2023-11-19T06:38:34;15.25;;;7.07;;
74471;SDS011;73591;53.714;10.514;2023-11-19T06:40:59;16.85;;;6.90;;
74471;SDS011;73591;53.714;10.514;2023-11-19T06:43:25;17.23;;;8.20;;
74471;SDS011;73591;53.714;10.514;2023-11-19T06:45:50;20.67;;;7.85;;
74471;SDS011;73591;53.714;10.514;2023-11-19T06:48:16;21.38;;;8.88;;
74471;SDS011;73591;53.714;10.514;2023-11-19T06:50:41;18.30;;;7.90;;
74471;SDS011;73591;53.714;10.514;2023-11-19T06:53:06;28.48;;;8.00;;
74471;SDS011;73591;53.714;10.514;2023-11-19T06:55:35;19.25;;;8.23;;
74471;SDS011;73591;53.714;10.514;2023-11-19T06:58:00;20.38;;;7.85;;
74471;SDS011;73591;53.714;10.514;2023-11-19T07:02:52;20.27;;;6.60;;
74471;SDS011;73591;53.714;10.514;2023-11-19T07:05:18;17.38;;;8.38;;
74471;SDS011;73591;53.714;10.514;2023-11-19T07:07:43;20.17;;;8.48;;
74471;SDS011;73591;53.714;10.514;2023-11-19T07:10:11;19.13;;;7.65;;
74471;SDS011;73591;53.714;10.514;2023-11-19T07:12:37;27.85;;;8.75;;
74471;SDS011;73591;53.714;10.514;2023-11-19T07:15:03;22.75;;;7.90;;
74471;SDS011;73591;53.714;10.514;2023-11-19T07:17:30;23.23;;;7.82;;
74471;SDS011;73591;53.714;10.514;2023-11-19T07:19:55;22.77;;;7.50;;
74471;SDS011;73591;53.714;10.514;2023-11-19T07:22:24;25.50;;;7.93;;
74471;SDS011;73591;53.714;10.514;2023-11-19T07:24:49;16.38;;;6.20;;
74471;SDS011;73591;53.714;10.514;2023-11-19T07:27:15;16.92;;;6.75;;
74471;SDS011;73591;53.714;10.514;2023-11-19T07:29:42;16.95;;;6.82;;
74471;SDS011;73591;53.714;10.514;2023-11-19T07:32:08;26.70;;;7.25;;
74471;SDS011;73591;53.714;10.514;2023-11-19T07:34:33;19.05;;;6.95;;
74471;SDS011;73591;53.714;10.514;2023-11-19T07:36:59;20.58;;;7.68;;
74471;SDS011;73591;53.714;10.514;2023-11-19T07:39:27;22.75;;;7.13;;
74471;SDS011;73591;53.714;10.514;2023-11-19T07:41:52;28.33;;;7.20;;
74471;SDS011;73591;53.714;10.514;2023-11-19T07:44:18;16.08;;;6.85;;
74471;SDS011;73591;53.714;10.514;2023-11-19T07:46:43;18.45;;;6.35;;
74471;SDS011;73591;53.714;10.514;2023-11-19T07:49:10;23.35;;;6.55;;
74471;SDS011;73591;53.714;10.514;2023-11-19T07:51:35;16.17;;;5.90;;
74471;SDS011;73591;53.714;10.514;2023-11-19T07:54:01;19.48;;;6.32;;
74471;SDS011;73591;53.714;10.514;2023-11-19T07:56:26;13.05;;;4.75;;
74471;SDS011;73591;53.714;10.514;2023-11-19T07:58:52;23.25;;;4.82;;
74471;SDS011;73591;53.714;10.514;2023-11-19T08:01:17;19.67;;;4.50;;
74471;SDS011;73591;53.714;10.514;2023-11-19T08:03:43;19.00;;;4.30;;
74471;SDS011;73591;53.714;10.514;2023-11-19T08:06:09;17.67;;;4.78;;
74471;SDS011;73591;53.714;10.514;2023-11-19T08:08:34;25.05;;;5.07;;
74471;SDS011;73591;53.714;10.514;2023-11-19T08:11:00;27.27;;;4.70;;
74471;SDS011;73591;53.714;10.514;2023-11-19T08:13:25;27.10;;;3.83;;
74471;SDS011;73591;53.714;10.514;2023-11-19T08:15:51;16.38;;;3.70;;
74471;SDS011;73591;53.714;10.514;2023-11-19T08:18:17;18.95;;;3.45;;
74471;SDS011;73591;53.714;10.514;2023-11-19T08:20:43;16.38;;;2.85;;
74471;SDS011;73591;53.714;10.514;2023-11-19T08:23:09;20.13;;;3.20;;
74471;SDS011;73591;53.714;10.514;2023-11-19T08:25:35;21.08;;;2.95;;
74471;SDS011;73591;53.714;10.514;2023-11-19T08:28:00;19.52;;;2.95;;
74471;SDS011;73591;53.714;10.514;2023-11-19T08:30:26;15.30;;;3.47;;
74471;SDS011;73591;53.714;10.514;2023-11-19T08:32:52;19.75;;;3.40;;
74471;SDS011;73591;53.714;10.514;2023-11-19T08:35:17;16.80;;;2.67;;
74471;SDS011;73591;53.714;10.514;2023-11-19T08:37:42;17.85;;;2.35;;
74471;SDS011;73591;53.714;10.514;2023-11-19T08:40:08;14.10;;;2.60;;
74471;SDS011;73591;53.714;10.514;2023-11-19T08:42:34;17.10;;;2.55;;
74471;SDS011;73591;53.714;10.514;2023-11-19T08:45:00;18.05;;;2.92;;
74471;SDS011;73591;53.714;10.514;2023-11-19T08:47:25;20.35;;;2.50;;
74471;SDS011;73591;53.714;10.514;2023-11-19T08:49:51;19.00;;;2.70;;
74471;SDS011;73591;53.714;10.514;2023-11-19T08:52:20;27.38;;;3.20;;
74471;SDS011;73591;53.714;10.514;2023-11-19T08:54:45;20.17;;;2.83;;
74471;SDS011;73591;53.714;10.514;2023-11-19T08:57:10;25.02;;;3.15;;
74471;SDS011;73591;53.714;10.514;2023-11-19T08:59:36;17.83;;;2.63;;
74471;SDS011;73591;53.714;10.514;2023-11-19T09:02:03;23.98;;;3.38;;
74471;SDS011;73591;53.714;10.514;2023-11-19T09:04:29;21.48;;;2.80;;
74471;SDS011;73591;53.714;10.514;2023-11-19T09:06:54;23.13;;;2.97;;
74471;SDS011;73591;53.714;10.514;2023-11-19T09:09:20;22.52;;;2.78;;
74471;SDS011;73591;53.714;10.514;2023-11-19T09:11:45;19.48;;;2.70;;
74471;SDS011;73591;53.714;10.514;2023-11-19T09:14:11;21.02;;;3.58;;
74471;SDS011;73591;53.714;10.514;2023-11-19T09:16:36;30.23;;;3.90;;
74471;SDS011;73591;53.714;10.514;2023-11-19T09:19:01;18.23;;;2.22;;
74471;SDS011;73591;53.714;10.514;2023-11-19T09:21:27;20.98;;;3.28;;
74471;SDS011;73591;53.714;10.514;2023-11-19T09:23:54;21.05;;;3.53;;
74471;SDS011;73591;53.714;10.514;2023-11-19T09:26:20;16.48;;;2.47;;
74471;SDS011;73591;53.714;10.514;2023-11-19T09:28:45;21.98;;;2.72;;
74471;SDS011;73591;53.714;10.514;2023-11-19T09:31:14;22.30;;;2.63;;
74471;SDS011;73591;53.714;10.514;2023-11-19T09:33:40;20.55;;;3.50;;
74471;SDS011;73591;53.714;10.514;2023-11-19T09:36:05;19.20;;;2.47;;
74471;SDS011;73591;53.714;10.514;2023-11-19T09:38:31;21.48;;;3.15;;
74471;SDS011;73591;53.714;10.514;2023-11-19T09:40:57;17.90;;;2.58;;
74471;SDS011;73591;53.714;10.514;2023-11-19T09:43:24;15.15;;;2.28;;
74471;SDS011;73591;53.714;10.514;2023-11-19T09:48:16;17.00;;;2.53;;
74471;SDS011;73591;53.714;10.514;2023-11-19T09:50:43;30.35;;;4.57;;
74471;SDS011;73591;53.714;10.514;2023-11-19T09:53:10;18.77;;;4.18;;
74471;SDS011;73591;53.714;10.514;2023-11-19T09:55:35;21.42;;;3.17;;
74471;SDS011;73591;53.714;10.514;2023-11-19T09:58:01;17.67;;;3.15;;
74471;SDS011;73591;53.714;10.514;2023-11-19T10:00:26;23.85;;;2.78;;
74471;SDS011;73591;53.714;10.514;2023-11-19T10:02:52;16.77;;;2.97;;
74471;SDS011;73591;53.714;10.514;2023-11-19T10:07:45;19.05;;;3.50;;
74471;SDS011;73591;53.714;10.514;2023-11-19T10:10:10;23.00;;;3.15;;
74471;SDS011;73591;53.714;10.514;2023-11-19T10:12:40;22.00;;;3.42;;
74471;SDS011;73591;53.714;10.514;2023-11-19T10:15:05;26.08;;;3.15;;
74471;SDS011;73591;53.714;10.514;2023-11-19T10:17:32;22.92;;;3.38;;
74471;SDS011;73591;53.714;10.514;2023-11-19T10:19:58;20.38;;;3.08;;
74471;SDS011;73591;53.714;10.514;2023-11-19T10:22:24;18.73;;;2.78;;
74471;SDS011;73591;53.714;10.514;2023-11-19T10:24:50;19.23;;;4.05;;
74471;SDS011;73591;53.714;10.514;2023-11-19T10:27:15;24.50;;;3.20;;
74471;SDS011;73591;53.714;10.514;2023-11-19T10:29:40;20.48;;;2.63;;
74471;SDS011;73591;53.714;10.514;2023-11-19T10:32:10;29.35;;;3.70;;
74471;SDS011;73591;53.714;10.514;2023-11-19T10:34:37;23.60;;;3.00;;
74471;SDS011;73591;53.714;10.514;2023-11-19T10:37:04;18.23;;;3.03;;
74471;SDS011;73591;53.714;10.514;2023-11-19T10:42:21;26.50;;;3.10;;
74471;SDS011;73591;53.714;10.514;2023-11-19T10:44:46;13.20;;;2.80;;
74471;SDS011;73591;53.714;10.514;2023-11-19T10:47:13;17.08;;;2.35;;
74471;SDS011;73591;53.714;10.514;2023-11-19T10:49:40;28.25;;;3.63;;
74471;SDS011;73591;53.714;10.514;2023-11-19T10:52:05;22.55;;;2.50;;
74471;SDS011;73591;53.714;10.514;2023-11-19T10:54:34;20.70;;;2.55;;
74471;SDS011;73591;53.714;10.514;2023-11-19T10:56:59;16.98;;;2.53;;
74471;SDS011;73591;53.714;10.514;2023-11-19T10:59:28;24.00;;;2.92;;
74471;SDS011;73591;53.714;10.514;2023-11-19T11:01:55;20.90;;;3.33;;
74471;SDS011;73591;53.714;10.514;2023-11-19T11:04:25;20.25;;;2.88;;
74471;SDS011;73591;53.714;10.514;2023-11-19T11:06:52;22.83;;;2.53;;
74471;SDS011;73591;53.714;10.514;2023-11-19T11:09:19;23.05;;;3.28;;
74471;SDS011;73591;53.714;10.514;2023-11-19T11:11:47;17.55;;;3.20;;
74471;SDS011;73591;53.714;10.514;2023-11-19T11:14:13;19.45;;;2.50;;
74471;SDS011;73591;53.714;10.514;2023-11-19T11:16:42;20.25;;;2.72;;
74471;SDS011;73591;53.714;10.514;2023-11-19T11:19:08;25.75;;;3.10;;
74471;SDS011;73591;53.714;10.514;2023-11-19T11:21:35;16.98;;;3.15;;
74471;SDS011;73591;53.714;10.514;2023-11-19T11:29:37;14.07;;;2.42;;
74471;SDS011;73591;53.714;10.514;2023-11-19T11:39:57;20.60;;;3.97;;
74471;SDS011;73591;53.714;10.514;2023-11-19T11:45:04;18.77;;;2.60;;
74471;SDS011;73591;53.714;10.514;2023-11-19T11:50:08;17.90;;;2.60;;
74471;SDS011;73591;53.714;10.514;2023-11-19T11:55:27;22.85;;;3.38;;
74471;SDS011;73591;53.714;10.514;2023-11-19T11:57:53;21.88;;;3.30;;
74471;SDS011;73591;53.714;10.514;2023-11-19T12:00:40;22.85;;;2.47;;
74471;SDS011;73591;53.714;10.514;2023-11-19T12:03:05;22.23;;;3.03;;
74471;SDS011;73591;53.714;10.514;2023-11-19T12:05:32;22.40;;;3.83;;
74471;SDS011;73591;53.714;10.514;2023-11-19T12:08:03;29.88;;;3.25;;
74471;SDS011;73591;53.714;10.514;2023-11-19T12:10:31;18.83;;;2.83;;
74471;SDS011;73591;53.714;10.514;2023-11-19T12:13:01;19.67;;;3.42;;
74471;SDS011;73591;53.714;10.514;2023-11-19T12:15:27;24.92;;;3.15;;
74471;SDS011;73591;53.714;10.514;2023-11-19T12:17:53;20.38;;;2.67;;
74471;SDS011;73591;53.714;10.514;2023-11-19T12:20:28;16.60;;;2.85;;
74471;SDS011;73591;53.714;10.514;2023-11-19T12:23:00;16.77;;;2.60;;
74471;SDS011;73591;53.714;10.514;2023-11-19T12:25:30;19.40;;;2.72;;
74471;SDS011;73591;53.714;10.514;2023-11-19T12:27:59;19.92;;;3.30;;
74471;SDS011;73591;53.714;10.514;2023-11-19T12:30:25;16.35;;;2.40;;
74471;SDS011;73591;53.714;10.514;2023-11-19T12:32:52;19.40;;;2.20;;
74471;SDS011;73591;53.714;10.514;2023-11-19T12:35:20;19.88;;;2.45;;
74471;SDS011;73591;53.714;10.514;2023-11-19T12:37:47;19.52;;;3.70;;
74471;SDS011;73591;53.714;10.514;2023-11-19T12:40:13;18.63;;;2.70;;
74471;SDS011;73591;53.714;10.514;2023-11-19T12:42:40;18.48;;;2.08;;
74471;SDS011;73591;53.714;10.514;2023-11-19T12:45:06;9.45;;;1.77;;
74471;SDS011;73591;53.714;10.514;2023-11-19T12:47:35;24.05;;;3.30;;
74471;SDS011;73591;53.714;10.514;2023-11-19T12:50:01;20.02;;;2.90;;
74471;SDS011;73591;53.714;10.514;2023-11-19T12:52:27;18.52;;;2.95;;
74471;SDS011;73591;53.714;10.514;2023-11-19T12:54:52;19.52;;;3.42;;
74471;SDS011;73591;53.714;10.514;2023-11-19T12:57:17;22.23;;;3.50;;
74471;SDS011;73591;53.714;10.514;2023-11-19T12:59:54;19.20;;;3.53;;
74471;SDS011;73591;53.714;10.514;2023-11-19T13:02:20;20.20;;;2.33;;
74471;SDS011;73591;53.714;10.514;2023-11-19T13:04:46;26.98;;;3.05;;
74471;SDS011;73591;53.714;10.514;2023-11-19T13:07:11;27.25;;;3.13;;
74471;SDS011;73591;53.714;10.514;2023-11-19T13:09:36;20.95;;;3.20;;
74471;SDS011;73591;53.714;10.514;2023-11-19T13:12:11;23.38;;;2.90;;
74471;SDS011;73591;53.714;10.514;2023-11-19T13:14:38;22.13;;;3.03;;
74471;SDS011;73591;53.714;10.514;2023-11-19T13:17:03;25.13;;;4.10;;
74471;SDS011;73591;53.714;10.514;2023-11-19T13:19:29;25.00;;;3.78;;
74471;SDS011;73591;53.714;10.514;2023-11-19T13:21:54;18.40;;;2.63;;
74471;SDS011;73591;53.714;10.514;2023-11-19T13:24:19;15.48;;;2.78;;
74471;SDS011;73591;53.714;10.514;2023-11-19T13:26:45;14.05;;;2.25;;
74471;SDS011;73591;53.714;10.514;2023-11-19T13:29:11;24.52;;;3.15;;
74471;SDS011;73591;53.714;10.514;2023-11-19T13:31:36;26.48;;;3.10;;
74471;SDS011;73591;53.714;10.514;2023-11-19T13:34:02;16.70;;;2.28;;
74471;SDS011;73591;53.714;10.514;2023-11-19T13:36:27;19.75;;;2.42;;
74471;SDS011;73591;53.714;10.514;2023-11-19T13:38:52;18.45;;;2.75;;
74471;SDS011;73591;53.714;10.514;2023-11-19T13:41:23;18.77;;;2.88;;
74471;SDS011;73591;53.714;10.514;2023-11-19T13:43:50;18.33;;;2.58;;
74471;SDS011;73591;53.714;10.514;2023-11-19T13:46:15;18.23;;;2.25;;
74471;SDS011;73591;53.714;10.514;2023-11-19T13:48:41;22.17;;;3.20;;
74471;SDS011;73591;53.714;10.514;2023-11-19T13:51:06;16.95;;;2.53;;
74471;SDS011;73591;53.714;10.514;2023-11-19T13:53:31;21.73;;;2.25;;
74471;SDS011;73591;53.714;10.514;2023-11-19T13:55:57;18.48;;;2.72;;
74471;SDS011;73591;53.714;10.514;2023-11-19T13:58:22;14.15;;;1.88;;
74471;SDS011;73591;53.714;10.514;2023-11-19T14:00:48;15.88;;;2.70;;
74471;SDS011;73591;53.714;10.514;2023-11-19T14:03:13;19.45;;;2.55;;
74471;SDS011;73591;53.714;10.514;2023-11-19T14:05:39;19.88;;;2.95;;
74471;SDS011;73591;53.714;10.514;2023-11-19T14:08:06;19.30;;;2.15;;
74471;SDS011;73591;53.714;10.514;2023-11-19T14:10:36;19.40;;;2.53;;
74471;SDS011;73591;53.714;10.514;2023-11-19T14:13:05;22.13;;;2.70;;
74471;SDS011;73591;53.714;10.514;2023-11-19T14:15:33;21.05;;;3.00;;
74471;SDS011;73591;53.714;10.514;2023-11-19T14:18:00;20.88;;;2.92;;
74471;SDS011;73591;53.714;10.514;2023-11-19T14:20:25;21.67;;;2.97;;
74471;SDS011;73591;53.714;10.514;2023-11-19T14:22:50;18.08;;;2.38;;
74471;SDS011;73591;53.714;10.514;2023-11-19T14:27:42;12.90;;;2.23;;
74471;SDS011;73591;53.714;10.514;2023-11-19T14:30:09;17.52;;;2.50;;
74471;SDS011;73591;53.714;10.514;2023-11-19T14:32:39;19.67;;;2.70;;
74471;SDS011;73591;53.714;10.514;2023-11-19T14:35:05;16.60;;;3.00;;
74471;SDS011;73591;53.714;10.514;2023-11-19T14:37:32;19.88;;;2.28;;
74471;SDS011;73591;53.714;10.514;2023-11-19T14:39:57;20.58;;;2.53;;
74471;SDS011;73591;53.714;10.514;2023-11-19T14:42:23;17.35;;;2.25;;
74471;SDS011;73591;53.714;10.514;2023-11-19T14:44:50;23.15;;;2.97;;
74471;SDS011;73591;53.714;10.514;2023-11-19T14:47:17;15.27;;;2.30;;
74471;SDS011;73591;53.714;10.514;2023-11-19T14:49:42;19.63;;;3.28;;
74471;SDS011;73591;53.714;10.514;2023-11-19T14:52:08;17.83;;;2.80;;
74471;SDS011;73591;53.714;10.514;2023-11-19T14:54:33;24.60;;;4.13;;
74471;SDS011;73591;53.714;10.514;2023-11-19T14:56:58;16.90;;;2.83;;
74471;SDS011;73591;53.714;10.514;2023-11-19T14:59:25;21.30;;;2.65;;